Rolandia, Brazil
Current Conditions -  °F | °C
As of 7:00 AM on Saturday 22 Nov 2014 (Local Time) from SBLO Reporting Station
Thunderstorm Thunderstorm  
Wind Chill: 68°   Ceiling: 9000
Heat Index: 68°   Visibility: 1.5mi
Dew Point: 68°   Wind: 16mph
Humidity: 100%   Direction: 210°SSW
Pressure: NA   Gusts: NA
Location:  23.31°S, 51.38°W
Report Text: SBLO 220900Z 21014KT 2500 +TSRA SCT010 FEW025CB BKN090 20/20 Q1015
Loading
Personal Weather Stations






























Interactive Weather Map New forecast layout! Learn more

10-Day Weather Forecast

Advertisements
Track Severe Weather on mobile